sensor_id;sensor_type;location;lat;lon;timestamp;pressure;altitude;pressure_sealevel;temperature;humidity
71107;BME280;58763;47.982;11.516;2022-12-16T00:00:27;92541.91;;;0.28;88.59
71107;BME280;58763;47.982;11.516;2022-12-16T00:02:52;92541.38;;;0.31;88.58
71107;BME280;58763;47.982;11.516;2022-12-16T00:05:18;92540.63;;;0.46;88.27
71107;BME280;58763;47.982;11.516;2022-12-16T00:07:47;92540.34;;;0.47;87.92
71107;BME280;58763;47.982;11.516;2022-12-16T00:10:13;92541.13;;;0.38;87.68
71107;BME280;58763;47.982;11.516;2022-12-16T00:12:39;92554.69;;;0.31;88.38
71107;BME280;58763;47.982;11.516;2022-12-16T00:15:05;92547.75;;;0.20;88.07
71107;BME280;58763;47.982;11.516;2022-12-16T00:17:30;92551.19;;;0.16;88.53
71107;BME280;58763;47.982;11.516;2022-12-16T00:19:56;92550.44;;;0.25;88.79
71107;BME280;58763;47.982;11.516;2022-12-16T00:22:22;92545.13;;;0.35;88.61
71107;BME280;58763;47.982;11.516;2022-12-16T00:24:48;92546.72;;;0.31;88.56
71107;BME280;58763;47.982;11.516;2022-12-16T00:27:13;92553.63;;;0.32;88.58
71107;BME280;58763;47.982;11.516;2022-12-16T00:29:39;92544.09;;;0.46;88.48
71107;BME280;58763;47.982;11.516;2022-12-16T00:32:05;92543.81;;;0.48;87.92
71107;BME280;58763;47.982;11.516;2022-12-16T00:34:31;92540.91;;;0.44;87.74
71107;BME280;58763;47.982;11.516;2022-12-16T00:36:57;92548.84;;;0.49;87.74
71107;BME280;58763;47.982;11.516;2022-12-16T00:39:23;92538.75;;;0.51;87.47
71107;BME280;58763;47.982;11.516;2022-12-16T00:41:49;92543.53;;;0.49;87.77
71107;BME280;58763;47.982;11.516;2022-12-16T00:44:15;92536.38;;;0.50;87.69
71107;BME280;58763;47.982;11.516;2022-12-16T00:46:40;92542.50;;;0.50;87.51
71107;BME280;58763;47.982;11.516;2022-12-16T00:49:06;92539.84;;;0.50;87.71
71107;BME280;58763;47.982;11.516;2022-12-16T00:51:31;92545.16;;;0.50;87.73
71107;BME280;58763;47.982;11.516;2022-12-16T00:53:57;92545.97;;;0.51;87.73
71107;BME280;58763;47.982;11.516;2022-12-16T00:56:23;92557.13;;;0.53;87.73
71107;BME280;58763;47.982;11.516;2022-12-16T00:58:49;92565.91;;;0.53;87.79
71107;BME280;58763;47.982;11.516;2022-12-16T01:01:14;92568.53;;;0.58;87.62
71107;BME280;58763;47.982;11.516;2022-12-16T01:03:40;92571.22;;;0.58;87.48
71107;BME280;58763;47.982;11.516;2022-12-16T01:06:08;92579.19;;;0.58;87.59
71107;BME280;58763;47.982;11.516;2022-12-16T01:08:34;92581.59;;;0.55;87.57
71107;BME280;58763;47.982;11.516;2022-12-16T01:11:00;92570.97;;;0.65;87.81
71107;BME280;58763;47.982;11.516;2022-12-16T01:13:25;92572.31;;;0.67;87.56
71107;BME280;58763;47.982;11.516;2022-12-16T01:15:51;92581.34;;;0.66;87.25
71107;BME280;58763;47.982;11.516;2022-12-16T01:18:16;92587.22;;;0.79;86.69
71107;BME280;58763;47.982;11.516;2022-12-16T01:20:42;92587.22;;;0.79;86.11
71107;BME280;58763;47.982;11.516;2022-12-16T01:23:08;92596.25;;;0.78;86.76
71107;BME280;58763;47.982;11.516;2022-12-16T01:25:34;92607.97;;;0.77;86.78
71107;BME280;58763;47.982;11.516;2022-12-16T01:27:59;92608.75;;;0.67;86.68
71107;BME280;58763;47.982;11.516;2022-12-16T01:30:25;92618.06;;;0.69;87.04
71107;BME280;58763;47.982;11.516;2022-12-16T01:32:51;92611.13;;;0.68;86.81
71107;BME280;58763;47.982;11.516;2022-12-16T01:35:16;92607.66;;;0.68;87.23
71107;BME280;58763;47.982;11.516;2022-12-16T01:37:42;92611.13;;;0.68;87.27
71107;BME280;58763;47.982;11.516;2022-12-16T01:40:16;92603.16;;;0.74;87.12
71107;BME280;58763;47.982;11.516;2022-12-16T01:42:43;92604.50;;;0.76;86.89
71107;BME280;58763;47.982;11.516;2022-12-16T01:47:57;92594.91;;;0.75;86.67
71107;BME280;58763;47.982;11.516;2022-12-16T01:50:25;92603.16;;;0.74;86.61
71107;BME280;58763;47.982;11.516;2022-12-16T01:52:55;92596.00;;;0.79;86.41
71107;BME280;58763;47.982;11.516;2022-12-16T01:55:27;92605.84;;;0.79;86.57
71107;BME280;58763;47.982;11.516;2022-12-16T01:58:01;92598.38;;;0.76;86.99
71107;BME280;58763;47.982;11.516;2022-12-16T02:00:28;92596.25;;;0.78;86.67
71107;BME280;58763;47.982;11.516;2022-12-16T02:02:54;92604.22;;;0.78;86.67
71107;BME280;58763;47.982;11.516;2022-12-16T02:05:20;92606.09;;;0.82;86.50
71107;BME280;58763;47.982;11.516;2022-12-16T02:08:05;92607.16;;;0.81;86.66
71107;BME280;58763;47.982;11.516;2022-12-16T02:16:17;92609.53;;;0.78;86.49
71107;BME280;58763;47.982;11.516;2022-12-16T02:21:45;92612.22;;;0.83;86.13
71107;BME280;58763;47.982;11.516;2022-12-16T02:27:39;92609.84;;;0.81;86.22
71107;BME280;58763;47.982;11.516;2022-12-16T02:33:37;92615.94;;;0.77;86.71
71107;BME280;58763;47.982;11.516;2022-12-16T02:38:23;92634.81;;;0.80;86.54
71107;BME280;58763;47.982;11.516;2022-12-16T02:40:54;92642.56;;;0.82;86.54
71107;BME280;58763;47.982;11.516;2022-12-16T02:46:06;92655.88;;;0.82;86.73
71107;BME280;58763;47.982;11.516;2022-12-16T02:48:32;92652.09;;;0.78;86.51
71107;BME280;58763;47.982;11.516;2022-12-16T02:50:57;92650.53;;;0.77;86.70
71107;BME280;58763;47.982;11.516;2022-12-16T02:53:23;92653.22;;;0.82;86.58
71107;BME280;58763;47.982;11.516;2022-12-16T02:56:03;92646.81;;;0.88;86.04
71107;BME280;58763;47.982;11.516;2022-12-16T03:01:07;92660.38;;;0.81;86.54
71107;BME280;58763;47.982;11.516;2022-12-16T03:06:22;92651.34;;;0.87;86.08
71107;BME280;58763;47.982;11.516;2022-12-16T03:08:55;92659.59;;;0.86;86.08
71107;BME280;58763;47.982;11.516;2022-12-16T03:11:25;92648.94;;;1.01;85.38
71107;BME280;58763;47.982;11.516;2022-12-16T03:13:54;92647.38;;;1.05;85.27
71107;BME280;58763;47.982;11.516;2022-12-16T03:16:25;92648.94;;;0.96;85.30
71107;BME280;58763;47.982;11.516;2022-12-16T03:18:58;92652.16;;;0.93;85.09
71107;BME280;58763;47.982;11.516;2022-12-16T03:21:28;92644.16;;;0.88;85.69
71107;BME280;58763;47.982;11.516;2022-12-16T03:23:58;92640.44;;;0.84;85.48
71107;BME280;58763;47.982;11.516;2022-12-16T03:26:32;92650.81;;;0.90;85.71
71107;BME280;58763;47.982;11.516;2022-12-16T03:29:02;92654.25;;;0.81;85.90
71107;BME280;58763;47.982;11.516;2022-12-16T03:31:44;92652.94;;;0.83;85.81
71107;BME280;58763;47.982;11.516;2022-12-16T03:36:45;92650.53;;;0.87;85.91
71107;BME280;58763;47.982;11.516;2022-12-16T03:39:14;92652.41;;;0.86;85.43
71107;BME280;58763;47.982;11.516;2022-12-16T03:41:42;92650.78;;;0.75;85.82
71107;BME280;58763;47.982;11.516;2022-12-16T03:44:09;92667.28;;;0.82;85.63
71107;BME280;58763;47.982;11.516;2022-12-16T03:46:35;92667.25;;;0.77;85.40
71107;BME280;58763;47.982;11.516;2022-12-16T03:49:00;92671.28;;;0.75;86.04
71107;BME280;58763;47.982;11.516;2022-12-16T03:51:26;92673.94;;;0.75;85.92
71107;BME280;58763;47.982;11.516;2022-12-16T03:53:52;92679.00;;;0.76;85.90
71107;BME280;58763;47.982;11.516;2022-12-16T03:56:17;92677.13;;;0.77;85.97
71107;BME280;58763;47.982;11.516;2022-12-16T03:58:43;92681.41;;;0.83;85.98
71107;BME280;58763;47.982;11.516;2022-12-16T04:01:09;92680.06;;;0.80;85.83
71107;BME280;58763;47.982;11.516;2022-12-16T04:03:35;92683.78;;;0.84;85.61
71107;BME280;58763;47.982;11.516;2022-12-16T04:06:01;92683.78;;;0.84;85.45
71107;BME280;58763;47.982;11.516;2022-12-16T04:08:28;92689.88;;;0.80;85.67
71107;BME280;58763;47.982;11.516;2022-12-16T04:10:53;92696.56;;;0.82;85.51
71107;BME280;58763;47.982;11.516;2022-12-16T04:13:38;92701.09;;;0.87;85.33
71107;BME280;58763;47.982;11.516;2022-12-16T04:16:22;92708.28;;;0.96;84.64
71107;BME280;58763;47.982;11.516;2022-12-16T04:19:24;92712.81;;;0.86;84.37
71107;BME280;58763;47.982;11.516;2022-12-16T04:22:13;92724.50;;;0.85;84.91
71107;BME280;58763;47.982;11.516;2022-12-16T04:25:03;92719.69;;;0.77;85.38
71107;BME280;58763;47.982;11.516;2022-12-16T04:27:29;92722.91;;;0.79;85.10
71107;BME280;58763;47.982;11.516;2022-12-16T04:29:56;92722.91;;;0.79;85.15
71107;BME280;58763;47.982;11.516;2022-12-16T04:32:42;92713.59;;;0.91;85.01
71107;BME280;58763;47.982;11.516;2022-12-16T04:35:26;92713.59;;;0.91;84.41
71107;BME280;58763;47.982;11.516;2022-12-16T04:38:10;92727.69;;;0.82;84.88
71107;BME280;58763;47.982;11.516;2022-12-16T04:40:55;92730.91;;;0.84;84.87
71107;BME280;58763;47.982;11.516;2022-12-16T04:43:39;92734.84;;;0.71;85.11
71107;BME280;58763;47.982;11.516;2022-12-16T04:46:23;92736.97;;;0.74;85.09
71107;BME280;58763;47.982;11.516;2022-12-16T04:49:08;92740.97;;;0.77;84.75
71107;BME280;58763;47.982;11.516;2022-12-16T04:51:52;92742.06;;;0.81;83.79
71107;BME280;58763;47.982;11.516;2022-12-16T04:54:36;92748.13;;;0.71;84.01
71107;BME280;58763;47.982;11.516;2022-12-16T04:57:20;92753.72;;;0.69;83.48
71107;BME280;58763;47.982;11.516;2022-12-16T05:00:05;92767.78;;;0.60;84.08
71107;BME280;58763;47.982;11.516;2022-12-16T05:02:49;92767.44;;;0.46;83.89
71107;BME280;58763;47.982;11.516;2022-12-16T05:05:47;92775.94;;;0.43;83.68
71107;BME280;58763;47.982;11.516;2022-12-16T05:08:31;92780.44;;;0.43;83.89
71107;BME280;58763;47.982;11.516;2022-12-16T05:11:15;92787.63;;;0.42;83.70
71107;BME280;58763;47.982;11.516;2022-12-16T05:13:59;92781.78;;;0.45;83.33
71107;BME280;58763;47.982;11.516;2022-12-16T05:16:43;92796.16;;;0.44;83.35
71107;BME280;58763;47.982;11.516;2022-12-16T05:19:27;92804.03;;;0.29;83.51
71107;BME280;58763;47.982;11.516;2022-12-16T05:22:11;92804.31;;;0.33;83.20
71107;BME280;58763;47.982;11.516;2022-12-16T05:24:55;92795.22;;;0.19;83.52
71107;BME280;58763;47.982;11.516;2022-12-16T05:27:39;92790.13;;;0.17;83.45
71107;BME280;58763;47.982;11.516;2022-12-16T05:30:23;92790.03;;;0.02;84.07
71107;BME280;58763;47.982;11.516;2022-12-16T05:33:07;92793.25;;;0.04;83.78
71107;BME280;58763;47.982;11.516;2022-12-16T05:35:51;92797.00;;;0.13;83.43
71107;BME280;58763;47.982;11.516;2022-12-16T05:38:36;92799.94;;;0.12;84.03
71107;BME280;58763;47.982;11.516;2022-12-16T05:41:20;92804.09;;;0.03;84.28
71107;BME280;58763;47.982;11.516;2022-12-16T05:44:04;92814.53;;;0.09;84.36
71107;BME280;58763;47.982;11.516;2022-12-16T05:46:48;92812.88;;;0.03;84.29
71107;BME280;58763;47.982;11.516;2022-12-16T05:49:32;92826.22;;;0.08;83.76
71107;BME280;58763;47.982;11.516;2022-12-16T05:52:16;92824.63;;;0.12;83.82
71107;BME280;58763;47.982;11.516;2022-12-16T05:55:00;92827.78;;;0.04;83.96
71107;BME280;58763;47.982;11.516;2022-12-16T05:57:48;92836.31;;;0.06;84.37
71107;BME280;58763;47.982;11.516;2022-12-16T06:00:32;92842.69;;;0.10;83.35
71107;BME280;58763;47.982;11.516;2022-12-16T06:03:16;92841.97;;;-0.17;84.26
71107;BME280;58763;47.982;11.516;2022-12-16T06:06:00;92843.31;;;-0.41;85.54
71107;BME280;58763;47.982;11.516;2022-12-16T06:08:44;92845.97;;;-0.41;85.24
71107;BME280;58763;47.982;11.516;2022-12-16T06:11:29;92842.16;;;-0.50;86.23
71107;BME280;58763;47.982;11.516;2022-12-16T06:14:13;92853.84;;;-0.51;86.07
71107;BME280;58763;47.982;11.516;2022-12-16T06:16:57;92858.66;;;-0.48;86.02
71107;BME280;58763;47.982;11.516;2022-12-16T06:19:42;92859.25;;;-0.41;85.78
71107;BME280;58763;47.982;11.516;2022-12-16T06:22:26;92857.50;;;-0.31;85.46
71107;BME280;58763;47.982;11.516;2022-12-16T06:25:10;92868.69;;;-0.29;88.43
71107;BME280;58763;47.982;11.516;2022-12-16T06:27:54;92871.19;;;-0.17;87.67
71107;BME280;58763;47.982;11.516;2022-12-16T06:30:39;92882.50;;;0.00;84.80
71107;BME280;58763;47.982;11.516;2022-12-16T06:33:23;92878.66;;;-0.14;84.22
71107;BME280;58763;47.982;11.516;2022-12-16T06:36:08;92889.50;;;-0.16;84.77
71107;BME280;58763;47.982;11.516;2022-12-16T06:38:51;92885.28;;;-0.17;84.37
71107;BME280;58763;47.982;11.516;2022-12-16T06:41:35;92900.94;;;-0.15;84.48
71107;BME280;58763;47.982;11.516;2022-12-16T06:44:19;92902.56;;;-0.14;83.54
71107;BME280;58763;47.982;11.516;2022-12-16T06:47:03;92908.66;;;-0.14;84.22
71107;BME280;58763;47.982;11.516;2022-12-16T06:49:48;92898.34;;;-0.10;83.72
71107;BME280;58763;47.982;11.516;2022-12-16T06:52:32;92915.38;;;-0.06;83.81
71107;BME280;58763;47.982;11.516;2022-12-16T06:55:16;92917.81;;;0.00;83.20
71107;BME280;58763;47.982;11.516;2022-12-16T06:58:00;92927.78;;;-0.12;83.76
71107;BME280;58763;47.982;11.516;2022-12-16T07:00:44;92924.84;;;-0.15;83.82
71107;BME280;58763;47.982;11.516;2022-12-16T07:03:29;92926.97;;;-0.17;83.31
71107;BME280;58763;47.982;11.516;2022-12-16T07:06:13;92928.41;;;-0.31;83.92
71107;BME280;58763;47.982;11.516;2022-12-16T07:08:57;92939.16;;;-0.43;84.43
71107;BME280;58763;47.982;11.516;2022-12-16T07:11:41;92941.41;;;-0.56;85.33
71107;BME280;58763;47.982;11.516;2022-12-16T07:14:25;92952.16;;;-0.68;85.75
71107;BME280;58763;47.982;11.516;2022-12-16T07:17:09;92943.25;;;-0.79;86.21
71107;BME280;58763;47.982;11.516;2022-12-16T07:19:54;92957.41;;;-0.73;85.73
71107;BME280;58763;47.982;11.516;2022-12-16T07:22:44;92960.16;;;-0.85;86.41
71107;BME280;58763;47.982;11.516;2022-12-16T07:25:29;92969.00;;;-1.17;87.51
71107;BME280;58763;47.982;11.516;2022-12-16T07:28:13;92983.75;;;-1.05;87.68
71107;BME280;58763;47.982;11.516;2022-12-16T07:30:58;92987.94;;;-0.92;87.04
71107;BME280;58763;47.982;11.516;2022-12-16T07:33:42;92991.34;;;-1.30;87.63
71107;BME280;58763;47.982;11.516;2022-12-16T07:36:26;92989.13;;;-1.21;87.61
71107;BME280;58763;47.982;11.516;2022-12-16T07:39:13;93000.09;;;-1.13;87.36
71107;BME280;58763;47.982;11.516;2022-12-16T07:41:58;93004.22;;;-1.38;88.56
71107;BME280;58763;47.982;11.516;2022-12-16T07:44:42;93010.47;;;-1.28;89.41
71107;BME280;58763;47.982;11.516;2022-12-16T07:47:50;93009.00;;;-1.02;89.20
71107;BME280;58763;47.982;11.516;2022-12-16T07:50:35;93005.75;;;-0.88;87.77
71107;BME280;58763;47.982;11.516;2022-12-16T07:53:20;93010.88;;;-0.81;86.67
71107;BME280;58763;47.982;11.516;2022-12-16T07:56:05;93017.84;;;-0.97;86.45
71107;BME280;58763;47.982;11.516;2022-12-16T07:58:49;93020.22;;;-0.79;86.26
71107;BME280;58763;47.982;11.516;2022-12-16T08:01:33;93030.19;;;-0.86;86.38
71107;BME280;58763;47.982;11.516;2022-12-16T08:04:17;93028.56;;;-0.70;86.28
71107;BME280;58763;47.982;11.516;2022-12-16T08:07:02;93020.38;;;-0.68;86.41
71107;BME280;58763;47.982;11.516;2022-12-16T08:09:46;93030.66;;;-0.72;86.22
71107;BME280;58763;47.982;11.516;2022-12-16T08:12:30;93036.28;;;-0.68;86.21
71107;BME280;58763;47.982;11.516;2022-12-16T08:15:14;93036.84;;;-0.66;85.78
71107;BME280;58763;47.982;11.516;2022-12-16T08:17:58;93041.78;;;-0.53;85.58
71107;BME280;58763;47.982;11.516;2022-12-16T08:20:42;93049.25;;;-0.50;85.74
71107;BME280;58763;47.982;11.516;2022-12-16T08:23:26;93049.19;;;-0.55;86.88
71107;BME280;58763;47.982;11.516;2022-12-16T08:26:10;93056.53;;;-0.62;84.94
71107;BME280;58763;47.982;11.516;2022-12-16T08:28:55;93063.03;;;-0.53;84.62
71107;BME280;58763;47.982;11.516;2022-12-16T08:31:38;93069.59;;;-0.61;84.00
71107;BME280;58763;47.982;11.516;2022-12-16T08:34:22;93077.31;;;-0.76;84.89
71107;BME280;58763;47.982;11.516;2022-12-16T08:37:06;93071.38;;;-0.83;85.42
71107;BME280;58763;47.982;11.516;2022-12-16T08:39:50;93075.81;;;-1.22;86.74
71107;BME280;58763;47.982;11.516;2022-12-16T08:42:34;93084.56;;;-1.05;87.18
71107;BME280;58763;47.982;11.516;2022-12-16T08:45:19;93085.63;;;-0.89;86.59
71107;BME280;58763;47.982;11.516;2022-12-16T08:48:03;93084.47;;;-0.77;85.84
71107;BME280;58763;47.982;11.516;2022-12-16T08:50:47;93084.34;;;-0.87;85.43
71107;BME280;58763;47.982;11.516;2022-12-16T08:53:32;93090.75;;;-0.83;85.31
71107;BME280;58763;47.982;11.516;2022-12-16T08:56:16;93095.50;;;-0.68;85.20
71107;BME280;58763;47.982;11.516;2022-12-16T08:59:00;93094.69;;;-1.35;86.06
71107;BME280;58763;47.982;11.516;2022-12-16T09:01:45;93105.31;;;-1.18;86.62
71107;BME280;58763;47.982;11.516;2022-12-16T09:04:30;93115.28;;;-1.09;86.08
71107;BME280;58763;47.982;11.516;2022-12-16T09:07:14;93116.47;;;-1.00;86.10
71107;BME280;58763;47.982;11.516;2022-12-16T09:09:58;93113.03;;;-0.84;85.65
71107;BME280;58763;47.982;11.516;2022-12-16T09:12:42;93115.19;;;-0.81;85.54
71107;BME280;58763;47.982;11.516;2022-12-16T09:15:26;93126.63;;;-0.63;85.50
71107;BME280;58763;47.982;11.516;2022-12-16T09:18:11;93130.31;;;-0.64;84.93
71107;BME280;58763;47.982;11.516;2022-12-16T09:20:55;93136.34;;;-0.86;85.00
71107;BME280;58763;47.982;11.516;2022-12-16T09:23:39;93149.78;;;-0.76;85.28
71107;BME280;58763;47.982;11.516;2022-12-16T09:26:23;93150.03;;;-0.94;84.25
71107;BME280;58763;47.982;11.516;2022-12-16T09:29:07;93158.28;;;-1.07;84.47
71107;BME280;58763;47.982;11.516;2022-12-16T09:31:51;93148.38;;;-1.11;84.09
71107;BME280;58763;47.982;11.516;2022-12-16T09:34:35;93160.13;;;-1.24;84.40
71107;BME280;58763;47.982;11.516;2022-12-16T09:37:19;93160.66;;;-0.94;84.04
71107;BME280;58763;47.982;11.516;2022-12-16T09:40:04;93165.44;;;-0.91;83.45
71107;BME280;58763;47.982;11.516;2022-12-16T09:42:57;93166.59;;;-0.87;83.70
71107;BME280;58763;47.982;11.516;2022-12-16T09:46:12;93164.00;;;-0.82;83.89
71107;BME280;58763;47.982;11.516;2022-12-16T09:52:01;93170.84;;;-0.52;83.06
71107;BME280;58763;47.982;11.516;2022-12-16T09:54:46;93180.09;;;-0.38;82.53
71107;BME280;58763;47.982;11.516;2022-12-16T09:57:33;93169.03;;;-0.30;81.94
71107;BME280;58763;47.982;11.516;2022-12-16T10:00:23;93170.19;;;-0.43;81.98
71107;BME280;58763;47.982;11.516;2022-12-16T10:03:18;93168.84;;;-0.45;81.66
71107;BME280;58763;47.982;11.516;2022-12-16T10:06:06;93172.84;;;-0.43;81.51
71107;BME280;58763;47.982;11.516;2022-12-16T10:09:11;93184.69;;;-0.50;82.22
71107;BME280;58763;47.982;11.516;2022-12-16T10:21:22;93204.56;;;-0.53;82.93
71107;BME280;58763;47.982;11.516;2022-12-16T10:24:15;93196.66;;;-0.48;81.78
71107;BME280;58763;47.982;11.516;2022-12-16T10:29:55;93205.19;;;-0.29;81.88
71107;BME280;58763;47.982;11.516;2022-12-16T10:32:46;93215.50;;;-0.33;81.69
71107;BME280;58763;47.982;11.516;2022-12-16T10:41:13;93215.56;;;-0.44;81.88
71107;BME280;58763;47.982;11.516;2022-12-16T10:43:58;93212.84;;;-0.33;82.30
71107;BME280;58763;47.982;11.516;2022-12-16T10:46:43;93211.41;;;-0.40;81.93
71107;BME280;58763;47.982;11.516;2022-12-16T10:49:27;93213.41;;;-0.31;82.29
71107;BME280;58763;47.982;11.516;2022-12-16T10:52:12;93216.44;;;-0.22;81.94
71107;BME280;58763;47.982;11.516;2022-12-16T11:01:20;93214.78;;;-0.28;81.83
71107;BME280;58763;47.982;11.516;2022-12-16T11:04:32;93226.78;;;-0.42;82.39
71107;BME280;58763;47.982;11.516;2022-12-16T11:10:47;93216.28;;;-0.16;81.95
71107;BME280;58763;47.982;11.516;2022-12-16T11:13:34;93218.91;;;0.01;81.14
71107;BME280;58763;47.982;11.516;2022-12-16T11:16:22;93226.41;;;0.04;80.94
71107;BME280;58763;47.982;11.516;2022-12-16T11:19:23;93230.81;;;-0.02;80.36
71107;BME280;58763;47.982;11.516;2022-12-16T11:22:14;93240.44;;;-0.01;80.55
71107;BME280;58763;47.982;11.516;2022-12-16T11:25:16;93236.53;;;0.07;79.95
71107;BME280;58763;47.982;11.516;2022-12-16T11:28:14;93237.66;;;0.11;80.32
71107;BME280;58763;47.982;11.516;2022-12-16T11:31:02;93237.88;;;-0.45;80.71
71107;BME280;58763;47.982;11.516;2022-12-16T11:33:47;93241.25;;;-0.50;81.84
71107;BME280;58763;47.982;11.516;2022-12-16T11:36:35;93245.59;;;-0.44;81.55
71107;BME280;58763;47.982;11.516;2022-12-16T11:39:22;93243.41;;;-0.63;82.48
71107;BME280;58763;47.982;11.516;2022-12-16T11:42:13;93248.28;;;-0.89;83.23
71107;BME280;58763;47.982;11.516;2022-12-16T11:45:00;93222.75;;;-0.61;83.66
71107;BME280;58763;47.982;11.516;2022-12-16T11:47:50;93228.44;;;-0.53;82.70
71107;BME280;58763;47.982;11.516;2022-12-16T11:50:40;93237.41;;;-0.42;81.97
71107;BME280;58763;47.982;11.516;2022-12-16T11:56:42;93246.00;;;-0.52;81.29
71107;BME280;58763;47.982;11.516;2022-12-16T12:02:46;93241.97;;;-0.54;81.64
71107;BME280;58763;47.982;11.516;2022-12-16T12:05:37;93245.03;;;-0.46;82.02
71107;BME280;58763;47.982;11.516;2022-12-16T12:08:37;93248.31;;;-0.55;81.91
71107;BME280;58763;47.982;11.516;2022-12-16T12:12:30;93244.63;;;-0.38;81.49
71107;BME280;58763;47.982;11.516;2022-12-16T12:15:02;93255.09;;;-0.48;81.58
71107;BME280;58763;47.982;11.516;2022-12-16T12:21:08;93270.59;;;-0.73;81.29
71107;BME280;58763;47.982;11.516;2022-12-16T12:24:40;93274.28;;;-0.74;81.13
71107;BME280;58763;47.982;11.516;2022-12-16T12:30:12;93273.16;;;-0.78;84.85
71107;BME280;58763;47.982;11.516;2022-12-16T12:33:19;93269.25;;;-0.59;83.70
71107;BME280;58763;47.982;11.516;2022-12-16T12:39:18;93278.38;;;-0.83;81.97
71107;BME280;58763;47.982;11.516;2022-12-16T12:48:16;93288.91;;;-1.28;83.86
71107;BME280;58763;47.982;11.516;2022-12-16T12:51:36;93288.19;;;-1.75;83.44
71107;BME280;58763;47.982;11.516;2022-12-16T12:57:14;93298.47;;;-1.78;84.53
71107;BME280;58763;47.982;11.516;2022-12-16T13:00:21;93303.41;;;-1.70;84.70
71107;BME280;58763;47.982;11.516;2022-12-16T13:06:15;93310.28;;;-1.46;83.00
71107;BME280;58763;47.982;11.516;2022-12-16T13:09:01;93316.72;;;-1.42;82.98
71107;BME280;58763;47.982;11.516;2022-12-16T13:20:43;93317.31;;;-1.28;83.15
71107;BME280;58763;47.982;11.516;2022-12-16T13:23:29;93325.72;;;-1.31;83.14
71107;BME280;58763;47.982;11.516;2022-12-16T13:26:16;93324.28;;;-1.11;82.54
71107;BME280;58763;47.982;11.516;2022-12-16T13:32:26;93336.00;;;-1.58;83.77
71107;BME280;58763;47.982;11.516;2022-12-16T13:40:54;93342.13;;;-1.69;84.54
71107;BME280;58763;47.982;11.516;2022-12-16T13:43:55;93355.84;;;-1.84;85.61
71107;BME280;58763;47.982;11.516;2022-12-16T13:46:44;93356.78;;;-1.78;84.90
71107;BME280;58763;47.982;11.516;2022-12-16T13:52:20;93361.63;;;-1.98;85.13
71107;BME280;58763;47.982;11.516;2022-12-16T13:55:28;93360.81;;;-1.99;85.87
71107;BME280;58763;47.982;11.516;2022-12-16T13:58:35;93377.25;;;-1.97;84.87
71107;BME280;58763;47.982;11.516;2022-12-16T14:01:28;93386.09;;;-2.03;86.06
71107;BME280;58763;47.982;11.516;2022-12-16T14:04:24;93389.78;;;-2.16;85.58
71107;BME280;58763;47.982;11.516;2022-12-16T14:07:09;93386.72;;;-2.01;85.48
71107;BME280;58763;47.982;11.516;2022-12-16T14:09:53;93389.69;;;-1.97;85.17
71107;BME280;58763;47.982;11.516;2022-12-16T14:15:58;93406.56;;;-2.22;87.95
71107;BME280;58763;47.982;11.516;2022-12-16T14:18:49;93416.84;;;-2.14;86.00
71107;BME280;58763;47.982;11.516;2022-12-16T14:21:45;93416.16;;;-2.09;86.26
71107;BME280;58763;47.982;11.516;2022-12-16T14:24:33;93418.16;;;-1.93;85.72
71107;BME280;58763;47.982;11.516;2022-12-16T14:27:19;93417.13;;;-1.92;85.33
71107;BME280;58763;47.982;11.516;2022-12-16T14:30:19;93428.03;;;-2.00;85.57
71107;BME280;58763;47.982;11.516;2022-12-16T14:33:23;93428.03;;;-2.12;85.77
71107;BME280;58763;47.982;11.516;2022-12-16T14:36:28;93435.41;;;-2.02;85.08
71107;BME280;58763;47.982;11.516;2022-12-16T14:39:27;93443.03;;;-2.05;85.44
71107;BME280;58763;47.982;11.516;2022-12-16T14:45:20;93448.75;;;-2.08;84.78
71107;BME280;58763;47.982;11.516;2022-12-16T14:48:14;93456.06;;;-1.92;84.69
71107;BME280;58763;47.982;11.516;2022-12-16T14:54:19;93467.97;;;-2.13;84.06
71107;BME280;58763;47.982;11.516;2022-12-16T14:57:04;93470.25;;;-2.17;84.56
71107;BME280;58763;47.982;11.516;2022-12-16T15:02:53;93485.28;;;-2.29;84.92
71107;BME280;58763;47.982;11.516;2022-12-16T15:05:39;93487.25;;;-2.54;85.65
71107;BME280;58763;47.982;11.516;2022-12-16T15:08:25;93481.09;;;-2.48;85.56
71107;BME280;58763;47.982;11.516;2022-12-16T15:11:13;93492.94;;;-2.21;85.11
71107;BME280;58763;47.982;11.516;2022-12-16T15:13:59;93482.91;;;-2.19;85.19
71107;BME280;58763;47.982;11.516;2022-12-16T15:16:46;93488.06;;;-2.24;84.86
71107;BME280;58763;47.982;11.516;2022-12-16T15:19:52;93491.09;;;-2.20;84.87
71107;BME280;58763;47.982;11.516;2022-12-16T15:22:48;93501.75;;;-2.38;85.08
71107;BME280;58763;47.982;11.516;2022-12-16T15:25:32;93502.88;;;-2.64;86.23
71107;BME280;58763;47.982;11.516;2022-12-16T15:28:26;93511.00;;;-2.65;86.67
71107;BME280;58763;47.982;11.516;2022-12-16T15:31:25;93515.94;;;-2.51;86.07
71107;BME280;58763;47.982;11.516;2022-12-16T15:37:12;93516.09;;;-2.82;87.73
71107;BME280;58763;47.982;11.516;2022-12-16T15:39:57;93524.56;;;-2.73;87.30
71107;BME280;58763;47.982;11.516;2022-12-16T15:42:41;93530.94;;;-2.63;86.76
71107;BME280;58763;47.982;11.516;2022-12-16T15:45:28;93530.19;;;-2.52;87.30
71107;BME280;58763;47.982;11.516;2022-12-16T15:48:19;93538.59;;;-2.55;86.01
71107;BME280;58763;47.982;11.516;2022-12-16T15:54:03;93544.63;;;-2.48;85.60
71107;BME280;58763;47.982;11.516;2022-12-16T15:56:47;93546.75;;;-2.38;85.26
71107;BME280;58763;47.982;11.516;2022-12-16T15:59:35;93557.84;;;-2.30;85.07
71107;BME280;58763;47.982;11.516;2022-12-16T16:02:24;93560.34;;;-2.35;84.93
71107;BME280;58763;47.982;11.516;2022-12-16T16:05:11;93560.16;;;-2.22;84.31
71107;BME280;58763;47.982;11.516;2022-12-16T16:07:56;93569.34;;;-2.06;83.70
71107;BME280;58763;47.982;11.516;2022-12-16T16:10:43;93569.78;;;-2.57;84.00
71107;BME280;58763;47.982;11.516;2022-12-16T16:13:28;93569.25;;;-2.29;84.59
71107;BME280;58763;47.982;11.516;2022-12-16T16:16:13;93576.31;;;-2.41;84.41
71107;BME280;58763;47.982;11.516;2022-12-16T16:18:57;93576.00;;;-2.69;84.30
71107;BME280;58763;47.982;11.516;2022-12-16T16:21:41;93574.84;;;-2.55;83.90